Time;durP1;ratioP1;P1;durP2;ratioP2;P2;SDS_P1;SDS_P2;PMS_P1;PMS_P2;Temp;Humidity;BMP_temperature;BMP_pressure;BME280_temperature;BME280_humidity;BME280_pressure;Samples;Min_cycle;Max_cycle;Signal;HPM_P1;HPM_P2
2022/04/14 00:00:13;;;;;;;5.67;5.07;;;12.60;75.50;;;;;;6299940;28;20469;-65
2022/04/14 00:03:16;;;;;;;8.47;6.07;;;12.50;75.70;;;;;;6299048;28;20485;-65
2022/04/14 00:06:19;;;;;;;5.90;5.33;;;12.50;76.10;;;;;;6298326;28;20970;-63
2022/04/14 00:09:23;;;;;;;6.80;6.20;;;12.40;76.50;;;;;;6298934;28;20477;-63
2022/04/14 00:12:26;;;;;;;5.87;5.20;;;12.40;77.00;;;;;;6298004;28;20802;-63
2022/04/14 00:15:31;;;;;;;6.10;5.33;;;12.40;77.00;;;;;;6298192;28;21066;-63
2022/04/14 00:18:34;;;;;;;7.10;6.50;;;12.30;76.90;;;;;;6299711;28;20465;-63
2022/04/14 00:21:37;;;;;;;7.77;5.90;;;12.20;76.90;;;;;;6299913;28;20895;-62
2022/04/14 00:24:40;;;;;;;9.00;5.70;;;12.20;77.20;;;;;;6299039;28;20473;-64
2022/04/14 00:27:43;;;;;;;6.50;5.53;;;12.20;77.40;;;;;;6300292;28;20480;-64
2022/04/14 00:30:47;;;;;;;6.20;5.60;;;12.10;77.40;;;;;;6300164;28;20473;-64
2022/04/14 00:33:51;;;;;;;6.73;5.33;;;12.00;78.20;;;;;;6299403;28;20480;-64
2022/04/14 00:36:54;;;;;;;7.70;6.20;;;11.90;78.20;;;;;;6299733;28;20469;-64
2022/04/14 00:39:57;;;;;;;6.20;5.67;;;11.90;79.10;;;;;;6299164;28;20480;-64
2022/04/14 00:43:00;;;;;;;6.17;5.53;;;11.90;79.40;;;;;;6299639;28;20556;-64
2022/04/14 00:46:05;;;;;;;5.80;5.30;;;11.80;79.30;;;;;;6299861;28;20475;-64
2022/04/14 00:49:08;;;;;;;8.67;6.00;;;11.80;79.10;;;;;;6301108;28;20465;-63
2022/04/14 00:52:11;;;;;;;7.07;6.27;;;11.80;78.90;;;;;;6300125;28;20493;-63
2022/04/14 00:55:16;;;;;;;5.83;5.30;;;11.80;79.70;;;;;;6299721;28;20473;-65
2022/04/14 00:58:20;;;;;;;5.80;5.30;;;11.80;79.10;;;;;;6299860;28;20808;-64
2022/04/14 01:01:24;;;;;;;5.93;5.33;;;11.70;79.30;;;;;;6299188;28;20477;-64
2022/04/14 01:04:28;;;;;;;5.50;5.07;;;11.70;79.60;;;;;;6290275;28;20905;-64
2022/04/14 01:07:35;;;;;;;7.13;5.50;;;11.70;79.70;;;;;;6304637;28;20477;-64
2022/04/14 01:10:40;;;;;;;5.30;4.80;;;11.70;79.50;;;;;;6304216;28;20470;-64
2022/04/14 01:13:44;;;;;;;5.93;5.40;;;11.70;79.60;;;;;;6304081;28;20824;-64
2022/04/14 01:16:48;;;;;;;5.33;4.83;;;11.70;79.80;;;;;;6304307;28;20484;-64
2022/04/14 01:19:51;;;;;;;6.07;5.50;;;11.70;80.00;;;;;;6303693;28;20465;-64
2022/04/14 01:22:57;;;;;;;5.87;5.27;;;11.70;80.00;;;;;;6303404;28;20484;-64
2022/04/14 01:26:02;;;;;;;6.20;5.20;;;11.60;80.10;;;;;;6304341;28;20469;-64
2022/04/14 01:29:06;;;;;;;5.00;4.50;;;11.50;80.30;;;;;;6303637;28;20488;-64
2022/04/14 01:32:10;;;;;;;5.20;4.67;;;11.50;80.60;;;;;;6303826;28;21008;-63
2022/04/14 01:35:13;;;;;;;7.97;5.87;;;11.50;80.80;;;;;;6302261;28;20552;-63
2022/04/14 01:38:16;;;;;;;6.60;6.00;;;11.50;80.70;;;;;;6301990;28;20508;-63
2022/04/14 01:41:21;;;;;;;6.10;5.50;;;11.50;81.00;;;;;;6302001;28;20477;-66
2022/04/14 01:44:24;;;;;;;5.80;5.13;;;11.40;81.20;;;;;;6302495;28;20477;-64
2022/04/14 01:47:27;;;;;;;8.37;6.30;;;11.40;81.20;;;;;;6303075;28;20473;-64
2022/04/14 01:50:30;;;;;;;6.13;5.63;;;11.40;81.40;;;;;;6303180;28;20474;-64
2022/04/14 01:53:33;;;;;;;6.47;5.87;;;11.40;81.60;;;;;;6302750;28;20543;-63
2022/04/14 01:56:37;;;;;;;5.37;4.97;;;11.30;81.40;;;;;;6302814;28;20468;-64
2022/04/14 01:59:40;;;;;;;6.10;5.57;;;11.20;81.70;;;;;;6301949;28;20525;-64
2022/04/14 02:02:44;;;;;;;6.77;6.17;;;11.20;82.00;;;;;;6300909;28;20465;-64
2022/04/14 02:05:48;;;;;;;6.73;5.73;;;11.10;82.30;;;;;;6291759;28;20596;-64
2022/04/14 02:08:51;;;;;;;6.03;5.43;;;11.10;82.50;;;;;;6300920;28;20982;-63
2022/04/14 02:11:55;;;;;;;7.43;5.93;;;11.10;82.80;;;;;;6301157;28;20452;-63
2022/04/14 02:14:58;;;;;;;6.07;5.47;;;11.00;82.60;;;;;;6301446;28;20788;-63
2022/04/14 02:18:01;;;;;;;6.17;5.67;;;11.00;82.90;;;;;;6302360;28;20901;-64
2022/04/14 02:21:05;;;;;;;6.87;6.23;;;11.00;83.20;;;;;;6302509;28;20450;-64
2022/04/14 02:24:08;;;;;;;6.03;5.50;;;10.90;83.40;;;;;;6302210;28;20476;-62
2022/04/14 02:27:12;;;;;;;6.20;5.33;;;10.90;83.70;;;;;;6301525;28;20472;-63
2022/04/14 02:30:15;;;;;;;6.63;6.00;;;10.90;84.10;;;;;;6300620;28;20465;-63
2022/04/14 02:33:19;;;;;;;6.47;5.97;;;10.90;84.30;;;;;;6303340;28;20466;-63
2022/04/14 02:36:23;;;;;;;6.77;6.27;;;10.80;84.40;;;;;;6301754;28;20466;-63
2022/04/14 02:39:27;;;;;;;7.57;6.43;;;10.80;84.60;;;;;;6300903;28;20481;-63
2022/04/14 02:42:31;;;;;;;6.77;6.00;;;10.70;84.90;;;;;;6302033;28;20473;-62
2022/04/14 02:45:34;;;;;;;6.50;6.00;;;10.70;85.30;;;;;;6302329;28;20476;-62
2022/04/14 02:48:37;;;;;;;7.03;6.07;;;10.60;85.50;;;;;;6302423;28;20515;-63
2022/04/14 02:51:40;;;;;;;9.20;6.17;;;10.60;85.70;;;;;;6300906;28;20482;-62
2022/04/14 02:54:43;;;;;;;6.60;6.10;;;10.60;86.20;;;;;;6302320;28;20485;-63
2022/04/14 02:57:48;;;;;;;6.93;6.40;;;10.60;86.40;;;;;;6302021;28;20492;-62
2022/04/14 03:00:52;;;;;;;7.63;6.93;;;10.60;86.70;;;;;;6302548;28;20476;-63
2022/04/14 03:03:55;;;;;;;7.30;6.70;;;10.50;86.60;;;;;;6301243;28;20847;-63
2022/04/14 03:06:58;;;;;;;7.00;6.23;;;10.50;86.90;;;;;;6301740;28;20476;-63
2022/04/14 03:10:02;;;;;;;7.80;7.10;;;10.50;87.90;;;;;;6296750;28;20489;-63
2022/04/14 03:13:07;;;;;;;7.70;7.00;;;10.50;87.20;;;;;;6301165;28;20477;-64
2022/04/14 03:16:10;;;;;;;9.03;7.30;;;10.50;87.40;;;;;;6301283;28;20476;-63
2022/04/14 03:19:14;;;;;;;9.40;7.70;;;10.50;87.60;;;;;;6300748;28;20925;-63
2022/04/14 03:22:17;;;;;;;7.70;6.80;;;10.40;87.80;;;;;;6300811;28;20490;-63
2022/04/14 03:25:20;;;;;;;10.10;8.40;;;10.40;87.70;;;;;;6300302;28;20473;-64
2022/04/14 03:28:25;;;;;;;9.00;7.00;;;10.30;88.10;;;;;;6298981;28;20941;-65
2022/04/14 03:31:33;;;;;;;7.77;6.90;;;10.30;88.50;;;;;;6300287;28;20969;-64
2022/04/14 03:34:36;;;;;;;6.87;6.23;;;10.30;88.80;;;;;;6299764;28;20489;-64
2022/04/14 03:37:40;;;;;;;8.27;7.43;;;10.20;89.10;;;;;;6300199;28;20473;-64
2022/04/14 03:40:43;;;;;;;8.23;6.80;;;10.20;89.40;;;;;;6301324;28;20473;-63
2022/04/14 03:43:47;;;;;;;7.20;6.47;;;10.20;89.60;;;;;;6301435;28;20478;-64
2022/04/14 03:46:50;;;;;;;7.57;6.30;;;10.20;89.80;;;;;;6301376;28;20469;-64
2022/04/14 03:49:53;;;;;;;7.00;6.27;;;10.20;90.00;;;;;;6301467;28;20484;-63
2022/04/14 03:52:56;;;;;;;7.40;6.70;;;10.10;90.00;;;;;;6299864;28;20961;-63
2022/04/14 03:56:00;;;;;;;8.80;7.00;;;10.10;90.00;;;;;;6299530;28;20469;-63
2022/04/14 03:59:04;;;;;;;8.53;6.47;;;10.10;90.10;;;;;;6300072;28;20477;-64
2022/04/14 04:02:07;;;;;;;9.17;6.93;;;10.00;90.20;;;;;;6299968;28;20496;-64
2022/04/14 04:05:11;;;;;;;8.00;6.90;;;10.00;90.30;;;;;;6299996;28;20487;-64
2022/04/14 04:08:14;;;;;;;8.60;7.00;;;10.00;90.20;;;;;;6300159;28;20484;-64
2022/04/14 04:11:17;;;;;;;7.53;6.20;;;9.90;90.90;;;;;;6300180;28;20487;-64
2022/04/14 04:14:22;;;;;;;6.67;6.07;;;9.80;91.00;;;;;;6300903;28;20477;-64
2022/04/14 04:17:25;;;;;;;7.90;7.30;;;9.90;91.30;;;;;;6292269;28;20481;-64
2022/04/14 04:20:28;;;;;;;6.80;6.20;;;9.90;91.20;;;;;;6300978;28;20492;-65
2022/04/14 04:23:31;;;;;;;7.43;6.63;;;9.90;91.30;;;;;;6300612;28;20474;-63
2022/04/14 04:26:34;;;;;;;7.43;5.80;;;9.80;91.40;;;;;;6299886;28;20480;-64
2022/04/14 04:29:39;;;;;;;7.60;6.87;;;9.70;91.40;;;;;;6300917;28;20473;-64
2022/04/14 04:32:42;;;;;;;7.30;6.70;;;9.80;91.40;;;;;;6300933;28;20540;-64
2022/04/14 04:35:45;;;;;;;7.13;6.40;;;9.90;91.40;;;;;;6299766;28;20484;-64
2022/04/14 04:38:49;;;;;;;12.90;6.77;;;9.80;91.70;;;;;;6299290;28;20786;-64
2022/04/14 04:41:52;;;;;;;7.40;6.20;;;9.80;91.40;;;;;;6304200;28;20459;-64
2022/04/14 04:44:56;;;;;;;7.93;5.67;;;9.80;91.40;;;;;;6304600;28;20441;-64
2022/04/14 04:47:59;;;;;;;16.20;6.77;;;9.90;91.40;;;;;;6304842;28;20442;-64
2022/04/14 04:51:02;;;;;;;8.10;6.97;;;9.90;91.50;;;;;;6304779;28;20449;-64
2022/04/14 04:54:05;;;;;;;7.17;6.57;;;9.90;91.50;;;;;;6304935;28;20489;-64
2022/04/14 04:57:09;;;;;;;9.43;6.70;;;9.90;91.50;;;;;;6305012;28;20790;-64
2022/04/14 05:00:14;;;;;;;6.67;6.07;;;9.90;91.90;;;;;;6304435;28;20917;-65
2022/04/14 05:03:17;;;;;;;7.97;6.60;;;9.90;91.40;;;;;;6305116;28;20465;-64
2022/04/14 05:06:24;;;;;;;8.17;5.37;;;9.90;91.40;;;;;;6306598;28;20472;-65
2022/04/14 05:09:27;;;;;;;7.67;6.70;;;10.10;91.00;;;;;;6304942;28;20478;-63
2022/04/14 05:12:30;;;;;;;8.37;6.70;;;10.10;90.70;;;;;;6304789;28;20770;-64
2022/04/14 05:15:35;;;;;;;8.20;6.33;;;10.00;90.90;;;;;;6300744;28;20469;-64
2022/04/14 05:18:39;;;;;;;10.70;6.97;;;10.10;91.00;;;;;;6305899;28;20473;-64
2022/04/14 05:21:42;;;;;;;9.40;6.63;;;10.10;90.90;;;;;;6305354;28;20566;-64
2022/04/14 05:24:45;;;;;;;10.47;6.20;;;10.10;90.80;;;;;;6305436;28;20488;-64
2022/04/14 05:27:48;;;;;;;6.93;6.33;;;10.20;90.90;;;;;;6304643;28;20469;-64
2022/04/14 05:30:53;;;;;;;10.13;7.70;;;10.20;90.90;;;;;;6304478;28;20465;-63
2022/04/14 05:33:56;;;;;;;6.60;6.00;;;10.40;90.70;;;;;;6304190;28;20864;-63
2022/04/14 05:36:59;;;;;;;8.50;6.17;;;10.40;90.70;;;;;;6303883;28;20472;-64
2022/04/14 05:40:03;;;;;;;7.80;7.00;;;10.50;90.60;;;;;;6303661;28;20468;-63
2022/04/14 05:43:06;;;;;;;8.30;7.40;;;10.70;90.60;;;;;;6303778;28;20483;-62
2022/04/14 05:46:10;;;;;;;6.90;6.20;;;10.90;90.10;;;;;;6303321;28;20473;-62
2022/04/14 05:49:15;;;;;;;6.63;6.03;;;11.10;90.30;;;;;;6303249;28;20560;-63
2022/04/14 05:52:18;;;;;;;12.30;6.50;;;11.60;90.00;;;;;;6302189;28;20473;-63
2022/04/14 05:55:21;;;;;;;8.73;7.70;;;12.00;87.90;;;;;;6303564;28;20469;-63
2022/04/14 05:58:24;;;;;;;6.30;5.70;;;12.40;87.00;;;;;;6309528;28;20481;-64
2022/04/14 06:01:30;;;;;;;7.80;7.07;;;13.40;85.10;;;;;;6309076;28;20481;-64
2022/04/14 06:04:33;;;;;;;8.57;6.40;;;14.60;80.20;;;;;;6303770;28;20933;-63
2022/04/14 06:07:36;;;;;;;7.60;6.03;;;15.70;75.70;;;;;;6303726;28;20473;-63
2022/04/14 06:10:39;;;;;;;8.30;6.97;;;16.60;71.40;;;;;;6303713;28;20470;-63
2022/04/14 06:13:42;;;;;;;8.63;7.73;;;17.50;68.60;;;;;;6303390;28;20469;-63
2022/04/14 06:16:47;;;;;;;12.37;6.80;;;18.30;63.80;;;;;;6302708;28;20933;-64
2022/04/14 06:19:50;;;;;;;9.13;6.33;;;19.10;60.50;;;;;;6302695;28;21017;-64
2022/04/14 06:22:55;;;;;;;10.97;6.90;;;19.70;57.70;;;;;;6297798;28;20481;-63
2022/04/14 06:25:58;;;;;;;9.43;6.87;;;20.50;56.60;;;;;;6302717;28;20226;-64
2022/04/14 06:29:02;;;;;;;8.47;7.00;;;21.10;52.80;;;;;;6302424;28;20227;-64
2022/04/14 06:32:08;;;;;;;8.40;6.57;;;21.80;51.20;;;;;;6302330;28;20608;-63
2022/04/14 06:35:16;;;;;;;7.27;6.57;;;22.50;49.40;;;;;;6302709;28;20575;-62
2022/04/14 06:38:21;;;;;;;7.93;7.13;;;23.20;46.90;;;;;;6303660;28;20574;-63
2022/04/14 06:41:26;;;;;;;9.90;7.67;;;23.90;45.90;;;;;;6302837;28;20238;-65
2022/04/14 06:44:29;;;;;;;7.33;6.63;;;24.60;44.00;;;;;;6317651;28;20229;-65
2022/04/14 06:47:33;;;;;;;9.80;7.83;;;25.00;42.40;;;;;;6327640;28;20229;-65
2022/04/14 06:50:37;;;;;;;8.30;7.53;;;25.70;41.00;;;;;;6322899;28;20605;-65
2022/04/14 06:53:43;;;;;;;7.53;6.93;;;26.40;39.40;;;;;;6325485;28;20306;-65
2022/04/14 06:56:46;;;;;;;9.00;8.10;;;27.10;38.00;;;;;;6327472;28;20278;-67
2022/04/14 06:59:49;;;;;;;11.70;8.63;;;27.90;36.40;;;;;;6328837;28;20210;-66
2022/04/14 07:02:55;;;;;;;8.73;7.93;;;28.40;35.00;;;;;;6327128;28;20588;-66
2022/04/14 07:06:00;;;;;;;8.87;8.07;;;29.00;33.90;;;;;;6327456;28;20202;-66
2022/04/14 07:09:03;;;;;;;10.20;7.87;;;29.40;31.50;;;;;;6326648;28;20281;-65
2022/04/14 07:12:08;;;;;;;7.90;6.93;;;29.50;30.40;;;;;;6326404;28;20228;-65
2022/04/14 07:15:12;;;;;;;7.47;6.77;;;29.90;29.30;;;;;;6326758;28;20226;-65
2022/04/14 07:18:17;;;;;;;7.23;6.53;;;30.80;28.70;;;;;;6327809;28;20232;-65
2022/04/14 07:21:20;;;;;;;7.57;6.97;;;31.90;27.60;;;;;;6327428;28;20696;-66
2022/04/14 07:24:23;;;;;;;7.88;7.07;;;32.60;26.40;;;;;;6316957;28;20256;-64
2022/04/14 07:27:26;;;;;;;8.95;8.23;;;33.00;25.80;;;;;;6327123;28;20230;-64
2022/04/14 07:30:31;;;;;;;7.85;7.15;;;33.40;25.40;;;;;;6326069;28;20233;-64
2022/04/14 07:33:36;;;;;;;7.65;7.05;;;34.30;25.60;;;;;;6326613;28;20566;-64
2022/04/14 07:36:39;;;;;;;8.63;7.75;;;35.30;24.50;;;;;;6324931;28;20248;-65
2022/04/14 07:39:42;;;;;;;7.50;6.82;;;36.00;23.50;;;;;;6326307;28;20241;-64
2022/04/14 07:42:49;;;;;;;8.02;7.35;;;36.40;22.80;;;;;;6324529;28;20221;-64
2022/04/14 07:45:52;;;;;;;8.00;7.30;;;36.50;22.50;;;;;;6325325;28;20222;-65
2022/04/14 07:48:56;;;;;;;8.32;7.43;;;37.10;21.90;;;;;;6326483;28;20257;-67
2022/04/14 07:52:00;;;;;;;7.63;7.00;;;37.70;21.40;;;;;;6327138;28;20218;-66
2022/04/14 07:55:03;;;;;;;7.47;6.97;;;37.90;21.30;;;;;;6335969;28;21012;-67
2022/04/14 07:58:07;;;;;;;6.80;6.18;;;38.10;20.90;;;;;;6330151;28;20242;-63
2022/04/14 08:01:11;;;;;;;8.93;7.75;;;38.30;20.70;;;;;;6326952;28;20222;-66
2022/04/14 08:04:15;;;;;;;7.95;7.30;;;38.40;21.10;;;;;;6326488;28;20226;-66
2022/04/14 08:07:18;;;;;;;8.80;7.45;;;38.90;20.40;;;;;;6328601;28;20685;-66
2022/04/14 08:10:22;;;;;;;6.90;6.35;;;39.60;19.90;;;;;;6327775;28;20233;-65
2022/04/14 08:13:27;;;;;;;7.72;7.13;;;40.10;20.00;;;;;;6322223;28;20359;-66
2022/04/14 08:16:31;;;;;;;8.15;6.78;;;40.60;19.10;;;;;;6323744;28;20320;-66
2022/04/14 08:19:38;;;;;;;8.27;7.43;;;41.10;19.20;;;;;;6325249;28;20687;-64
2022/04/14 08:22:49;;;;;;;7.00;6.30;;;41.70;18.40;;;;;;6324776;28;20685;-65
2022/04/14 08:25:52;;;;;;;8.10;7.40;;;42.20;18.10;;;;;;6326230;28;20229;-66
2022/04/14 08:29:15;;;;;;;7.57;6.80;;;42.30;18.00;;;;;;6313500;28;20268;-64
2022/04/14 08:32:19;;;;;;;8.18;7.47;;;43.00;17.80;;;;;;6323194;28;20244;-64
2022/04/14 08:35:25;;;;;;;9.30;8.27;;;43.40;17.60;;;;;;6323308;28;20221;-63
2022/04/14 08:38:28;;;;;;;7.95;7.43;;;44.00;17.00;;;;;;6323301;28;20236;-64
2022/04/14 08:41:35;;;;;;;7.53;6.93;;;43.40;16.80;;;;;;6323317;28;20581;-66
2022/04/14 08:44:50;;;;;;;7.85;7.15;;;42.70;17.70;;;;;;6322746;28;20229;-65
2022/04/14 08:47:54;;;;;;;8.38;7.68;;;44.20;17.20;;;;;;6323169;28;20512;-64
2022/04/14 08:50:59;;;;;;;8.35;7.65;;;42.30;17.40;;;;;;6323645;28;20205;-65
2022/04/14 08:54:02;;;;;;;8.20;7.50;;;42.60;17.50;;;;;;6323375;28;20282;-65
2022/04/14 08:57:06;;;;;;;9.55;8.00;;;43.70;17.00;;;;;;6323124;28;20650;-64
2022/04/14 09:00:11;;;;;;;8.30;7.55;;;44.20;16.60;;;;;;6323153;28;20230;-68
2022/04/14 09:03:16;;;;;;;8.60;7.80;;;45.10;16.30;;;;;;6323397;28;20226;-65
2022/04/14 09:06:21;;;;;;;8.98;8.07;;;44.00;16.20;;;;;;6322587;28;20226;-65
2022/04/14 09:09:24;;;;;;;11.02;8.32;;;43.50;16.70;;;;;;6322928;28;20708;-65
2022/04/14 09:12:28;;;;;;;8.60;7.90;;;44.10;16.40;;;;;;6323115;28;20229;-65
2022/04/14 09:15:31;;;;;;;8.18;7.50;;;43.60;16.60;;;;;;6323103;28;20226;-64
2022/04/14 09:18:35;;;;;;;9.50;8.60;;;44.30;16.10;;;;;;6323023;28;20221;-64
2022/04/14 09:21:57;;;;;;;8.45;7.65;;;45.00;16.00;;;;;;6323116;28;20232;-64
2022/04/14 09:25:00;;;;;;;9.07;8.25;;;45.50;15.50;;;;;;6322702;28;20925;-66
2022/04/14 09:28:09;;;;;;;8.27;7.68;;;43.90;15.90;;;;;;6327564;28;20225;-65
2022/04/14 09:31:14;;;;;;;9.27;8.57;;;42.60;16.80;;;;;;6321851;28;20245;-66
2022/04/14 09:34:19;;;;;;;8.50;7.70;;;40.60;17.50;;;;;;6329131;28;20234;-66
2022/04/14 09:37:24;;;;;;;8.52;7.82;;;39.10;18.60;;;;;;6320697;28;20230;-63
2022/04/14 09:40:34;;;;;;;10.25;8.68;;;37.40;19.70;;;;;;6324958;28;20222;-63
2022/04/14 09:43:37;;;;;;;9.52;8.73;;;36.40;20.30;;;;;;6327735;28;20240;-62
2022/04/14 09:46:45;;;;;;;9.10;8.40;;;34.50;21.40;;;;;;6329998;28;20226;-64
2022/04/14 09:49:48;;;;;;;9.27;8.48;;;33.50;22.60;;;;;;6337210;28;20287;-62
2022/04/14 09:53:06;;;;;;;9.90;9.07;;;31.90;23.80;;;;;;6328778;28;20700;-63
2022/04/14 09:56:10;;;;;;;9.02;8.23;;;30.40;25.30;;;;;;6328160;28;20294;-63
2022/04/14 09:59:15;;;;;;;8.55;7.93;;;29.70;26.20;;;;;;6327824;28;20241;-61
2022/04/14 10:02:18;;;;;;;8.80;8.00;;;28.80;27.40;;;;;;6327567;28;20244;-61
2022/04/14 10:05:35;;;;;;;9.00;8.27;;;28.30;27.90;;;;;;6327697;28;20234;-62
2022/04/14 10:08:50;;;;;;;9.53;8.73;;;27.90;28.50;;;;;;6327417;28;20238;-63
2022/04/14 10:11:54;;;;;;;8.97;8.17;;;26.90;29.50;;;;;;6327394;28;20229;-63
2022/04/14 10:15:07;;;;;;;10.17;9.40;;;26.10;30.70;;;;;;6327024;28;20205;-68
2022/04/14 10:18:12;;;;;;;9.17;8.30;;;25.90;31.30;;;;;;6327954;28;20226;-66
2022/04/14 10:21:15;;;;;;;11.00;9.87;;;25.70;32.10;;;;;;6327758;28;20226;-66
2022/04/14 10:24:23;;;;;;;9.97;8.97;;;25.60;32.30;;;;;;6327369;28;20234;-67
2022/04/14 10:27:28;;;;;;;8.77;8.00;;;25.60;33.10;;;;;;6327120;28;20684;-68
2022/04/14 10:30:31;;;;;;;12.50;11.40;;;25.40;33.40;;;;;;6327271;28;20222;-64
2022/04/14 10:33:36;;;;;;;9.90;9.10;;;25.10;33.80;;;;;;6327509;28;20225;-64
2022/04/14 10:36:40;;;;;;;9.57;8.80;;;24.80;34.00;;;;;;6317374;28;20237;-66
2022/04/14 10:39:48;;;;;;;9.17;8.23;;;24.80;34.30;;;;;;6326491;28;20240;-64
2022/04/14 10:42:56;;;;;;;9.10;7.70;;;24.80;34.40;;;;;;6326772;28;20222;-64
2022/04/14 10:46:00;;;;;;;8.73;7.83;;;24.80;34.60;;;;;;6327936;28;20222;-65
2022/04/14 10:49:14;;;;;;;9.37;8.47;;;24.90;34.70;;;;;;6330731;28;20535;-65
2022/04/14 10:52:25;;;;;;;8.50;7.80;;;25.00;34.50;;;;;;6330706;28;20294;-63
2022/04/14 10:55:36;;;;;;;9.40;8.50;;;24.90;34.50;;;;;;6330639;28;20227;-63
2022/04/14 10:58:55;;;;;;;8.70;8.00;;;24.80;34.20;;;;;;6327998;28;20260;-65
2022/04/14 11:02:04;;;;;;;9.47;8.70;;;25.00;34.40;;;;;;6334983;28;20242;-63
2022/04/14 11:05:07;;;;;;;10.33;9.40;;;25.00;34.20;;;;;;6327356;28;20233;-64
2022/04/14 11:08:27;;;;;;;9.57;8.67;;;24.90;34.40;;;;;;6327087;28;20364;-61
2022/04/14 11:12:01;;;;;;;12.70;8.80;;;25.00;34.70;;;;;;6330827;28;20234;-61
2022/04/14 11:15:06;;;;;;;10.27;9.43;;;25.20;34.50;;;;;;6327727;28;20541;-61
2022/04/14 11:18:09;;;;;;;9.60;8.90;;;25.30;34.40;;;;;;6326810;28;20238;-64
2022/04/14 11:21:12;;;;;;;9.83;9.10;;;25.00;34.60;;;;;;6332227;28;20225;-63
2022/04/14 11:24:15;;;;;;;9.93;9.17;;;24.80;34.80;;;;;;6331286;28;20234;-63
2022/04/14 11:27:21;;;;;;;9.83;9.03;;;24.80;34.90;;;;;;6328704;28;20232;-62
2022/04/14 11:30:40;;;;;;;10.20;9.30;;;24.60;34.80;;;;;;6324433;28;20721;-61
2022/04/14 11:33:45;;;;;;;10.00;9.00;;;24.80;35.20;;;;;;6335206;28;20315;-62
2022/04/14 11:36:50;;;;;;;9.80;9.10;;;25.00;35.10;;;;;;6337488;28;20234;-63
2022/04/14 11:40:16;;;;;;;10.80;10.00;;;25.00;35.50;;;;;;6328525;28;20226;-62
2022/04/14 11:43:24;;;;;;;10.10;9.27;;;24.60;35.70;;;;;;6328694;28;20226;-61
2022/04/14 11:46:46;;;;;;;9.00;8.30;;;24.50;36.00;;;;;;6326694;28;20222;-61
2022/04/14 11:49:50;;;;;;;11.07;9.93;;;24.60;35.60;;;;;;6324738;28;20554;-61
2022/04/14 11:52:56;;;;;;;9.20;8.30;;;24.60;36.00;;;;;;6325641;28;20601;-61
2022/04/14 11:56:00;;;;;;;8.10;7.40;;;24.20;36.70;;;;;;6325906;28;20241;-64
2022/04/14 11:59:08;;;;;;;9.70;8.80;;;24.60;36.30;;;;;;6325164;28;20234;-64
2022/04/14 12:02:14;;;;;;;8.80;7.90;;;24.90;35.70;;;;;;6325062;28;20245;-62
2022/04/14 12:05:22;;;;;;;8.47;7.67;;;25.10;35.40;;;;;;6325041;28;20234;-64
2022/04/14 12:08:25;;;;;;;8.13;7.30;;;25.20;35.00;;;;;;6325280;28;20555;-62
2022/04/14 12:11:30;;;;;;;9.40;8.60;;;25.30;35.30;;;;;;6324959;28;20229;-64
2022/04/14 12:14:35;;;;;;;8.40;7.60;;;25.10;35.30;;;;;;6324977;28;20322;-62
2022/04/14 12:17:39;;;;;;;8.30;7.60;;;25.00;35.80;;;;;;6324799;28;20530;-63
2022/04/14 12:20:43;;;;;;;9.23;8.43;;;24.80;35.40;;;;;;6324602;28;20234;-61
2022/04/14 12:23:51;;;;;;;9.27;8.33;;;24.80;36.00;;;;;;6324503;28;20248;-64
2022/04/14 12:26:54;;;;;;;8.73;8.03;;;24.90;35.70;;;;;;6324595;28;20594;-64
2022/04/14 12:30:06;;;;;;;10.87;9.73;;;24.90;36.10;;;;;;6325384;28;20243;-64
2022/04/14 12:33:10;;;;;;;10.77;9.60;;;24.80;35.90;;;;;;6325033;28;20326;-64
2022/04/14 12:36:13;;;;;;;8.77;8.07;;;24.60;36.60;;;;;;6324844;28;20654;-60
2022/04/14 12:39:21;;;;;;;11.03;9.80;;;24.80;36.30;;;;;;6324623;28;20236;-65
2022/04/14 12:42:31;;;;;;;10.17;9.17;;;25.10;36.00;;;;;;6324872;28;20233;-62
2022/04/14 12:45:39;;;;;;;11.73;10.83;;;25.30;35.70;;;;;;6300119;28;20228;-63
2022/04/14 12:48:42;;;;;;;12.07;10.03;;;25.40;35.30;;;;;;6300967;28;20230;-62
2022/04/14 12:51:53;;;;;;;10.30;9.40;;;25.20;35.30;;;;;;6319779;28;20217;-63
2022/04/14 12:54:58;;;;;;;9.20;8.40;;;24.90;35.40;;;;;;6325032;28;20229;-65
2022/04/14 12:58:19;;;;;;;8.07;7.47;;;24.90;36.00;;;;;;6324512;28;20241;-61
2022/04/14 13:01:23;;;;;;;9.63;7.43;;;25.00;35.50;;;;;;6326817;28;20230;-61
2022/04/14 13:04:34;;;;;;;9.60;8.63;;;25.10;35.00;;;;;;6329684;28;20309;-62
2022/04/14 13:07:49;;;;;;;9.30;8.60;;;24.90;36.70;;;;;;6329730;28;20314;-62
2022/04/14 13:10:52;;;;;;;10.50;9.60;;;24.90;35.90;;;;;;6330849;28;20587;-64
2022/04/14 13:13:56;;;;;;;10.67;9.10;;;24.80;35.60;;;;;;6331984;28;20241;-66
2022/04/14 13:17:02;;;;;;;10.83;9.77;;;24.90;36.10;;;;;;6331306;28;21013;-64
2022/04/14 13:20:10;;;;;;;10.30;9.30;;;24.70;35.70;;;;;;6341138;28;20222;-63
2022/04/14 13:23:18;;;;;;;9.43;8.53;;;24.70;36.00;;;;;;6344857;28;20244;-65
2022/04/14 13:26:22;;;;;;;8.60;7.70;;;24.80;36.00;;;;;;6330654;28;20653;-65
2022/04/14 13:29:25;;;;;;;7.80;7.10;;;24.90;35.60;;;;;;6329823;28;20241;-65
2022/04/14 13:32:30;;;;;;;9.80;9.00;;;24.80;35.40;;;;;;6305316;28;20238;-66
2022/04/14 13:35:34;;;;;;;8.43;7.80;;;24.80;35.10;;;;;;6304485;28;20231;-68
2022/04/14 13:38:37;;;;;;;9.00;8.20;;;24.70;35.50;;;;;;6304583;28;20257;-66
2022/04/14 13:41:41;;;;;;;8.23;7.43;;;24.40;35.60;;;;;;6304202;28;20572;-64
2022/04/14 13:44:44;;;;;;;10.53;9.20;;;24.40;35.90;;;;;;6323854;28;20664;-63
2022/04/14 13:47:49;;;;;;;7.00;6.40;;;24.20;35.90;;;;;;6328567;28;20222;-64
2022/04/14 13:50:52;;;;;;;7.97;7.37;;;24.20;35.70;;;;;;6326170;28;20230;-63
2022/04/14 13:53:55;;;;;;;7.00;6.50;;;24.20;36.10;;;;;;6328549;28;20222;-65
2022/04/14 13:56:58;;;;;;;9.33;7.00;;;24.30;36.30;;;;;;6328577;28;20202;-64
2022/04/14 14:00:02;;;;;;;7.87;7.27;;;24.40;36.80;;;;;;6328674;28;20252;-64
2022/04/14 14:03:06;;;;;;;8.80;7.33;;;24.40;36.10;;;;;;6328278;28;20701;-66
2022/04/14 14:06:09;;;;;;;7.20;6.20;;;24.40;36.50;;;;;;6328773;28;20242;-64
2022/04/14 14:09:13;;;;;;;7.77;7.00;;;24.40;35.60;;;;;;6328291;28;20230;-64
2022/04/14 14:12:16;;;;;;;7.10;6.50;;;24.50;35.80;;;;;;6327231;28;20241;-64
2022/04/14 14:15:19;;;;;;;7.33;5.80;;;24.40;35.10;;;;;;6327955;28;20229;-64
2022/04/14 14:18:23;;;;;;;8.30;6.27;;;24.20;35.60;;;;;;6327785;28;20230;-63
2022/04/14 14:21:26;;;;;;;7.33;6.57;;;24.20;35.20;;;;;;6320634;28;20693;-63
2022/04/14 14:24:30;;;;;;;7.77;7.07;;;24.10;35.50;;;;;;6302092;28;20238;-63
2022/04/14 14:27:33;;;;;;;8.47;5.70;;;24.00;35.70;;;;;;6302285;28;20657;-63
2022/04/14 14:30:36;;;;;;;6.60;6.00;;;23.90;35.90;;;;;;6302111;28;20242;-62
2022/04/14 14:33:41;;;;;;;7.00;6.40;;;24.00;35.70;;;;;;6301927;28;20238;-63
2022/04/14 14:36:47;;;;;;;5.80;5.07;;;24.00;35.50;;;;;;6302111;28;20226;-65
2022/04/14 14:39:50;;;;;;;6.57;5.50;;;24.10;35.30;;;;;;6302182;28;20262;-64
2022/04/14 14:42:53;;;;;;;6.07;5.10;;;24.00;35.40;;;;;;6304730;28;20248;-65
2022/04/14 14:45:56;;;;;;;5.60;5.20;;;23.90;35.70;;;;;;6326922;28;20304;-67
2022/04/14 14:49:01;;;;;;;6.27;5.30;;;23.80;35.60;;;;;;6325337;28;20226;-65
2022/04/14 14:52:05;;;;;;;5.53;4.90;;;23.70;35.90;;;;;;6321497;28;20234;-65
2022/04/14 14:55:13;;;;;;;7.10;4.80;;;23.80;35.60;;;;;;6326992;28;20250;-65
2022/04/14 15:01:37;;;;;;;8.27;4.93;;;23.90;35.80;;;;;;6327009;28;20230;-64
2022/04/14 15:04:41;;;;;;;6.03;5.30;;;23.80;36.90;;;;;;6326913;28;20231;-64
2022/04/14 15:07:45;;;;;;;6.30;5.03;;;23.70;36.50;;;;;;6345854;28;20227;-64
2022/04/14 15:10:48;;;;;;;8.53;5.63;;;23.80;36.40;;;;;;6333169;28;20237;-63
2022/04/14 15:13:51;;;;;;;5.90;5.40;;;23.80;36.40;;;;;;6327346;28;20242;-64
2022/04/14 15:16:54;;;;;;;6.07;5.47;;;23.90;36.00;;;;;;6324456;28;20238;-64
2022/04/14 15:19:59;;;;;;;6.40;5.47;;;23.90;36.00;;;;;;6301179;28;20230;-63
2022/04/14 15:23:04;;;;;;;6.30;5.37;;;23.90;35.70;;;;;;6312200;28;20583;-65
2022/04/14 15:26:08;;;;;;;8.10;5.83;;;23.80;35.70;;;;;;6326106;28;20313;-66
2022/04/14 15:29:11;;;;;;;4.97;4.57;;;23.90;35.80;;;;;;6325880;28;20227;-62
2022/04/14 15:32:16;;;;;;;6.03;5.47;;;23.90;35.90;;;;;;6325570;28;20693;-64
2022/04/14 15:35:21;;;;;;;5.60;5.10;;;23.90;35.80;;;;;;6325557;28;20600;-65
2022/04/14 15:38:24;;;;;;;8.10;5.23;;;23.80;36.10;;;;;;6325292;28;20241;-65
2022/04/14 15:41:28;;;;;;;5.87;5.37;;;23.90;36.00;;;;;;6325524;28;20704;-64
2022/04/14 15:44:32;;;;;;;5.70;5.20;;;24.00;36.10;;;;;;6325061;28;20230;-64
2022/04/14 15:47:35;;;;;;;6.10;5.20;;;24.00;35.70;;;;;;6325253;28;20236;-64
2022/04/14 15:50:42;;;;;;;5.37;4.97;;;24.10;35.80;;;;;;6324602;28;20236;-65
2022/04/14 15:53:45;;;;;;;5.60;5.13;;;24.00;35.70;;;;;;6325427;28;20245;-65
2022/04/14 15:56:49;;;;;;;5.50;4.97;;;23.90;35.70;;;;;;6316727;28;20277;-64
2022/04/14 15:59:53;;;;;;;6.77;5.57;;;23.90;35.80;;;;;;6299754;28;20231;-65
2022/04/14 16:02:56;;;;;;;5.90;5.30;;;23.80;36.00;;;;;;6299651;28;20234;-66